N605VV KEFD-KFSD
Flight info
| Callsign | N605VV |
|---|---|
| Flight time | 1h 55m |
| Altitude | 34000 |
| Route | STYCK8 WTSON BYP |
| Aircraft | CL60/M-SBDE1E2E3FGHIJ1J4J5J7M3RWXYZ/LB1V1D1 |
Departure
| Time | 2026-05-07 00:30 |
|---|---|
| Airport | Ellington Airport (KEFD) |
Arrival
| Time | 2026-05-07 02:25 |
|---|---|
| Airport | Sioux Falls Regional Airport (KFSD) |
| Time | Latitude | Longitude | Altitude | Speed | Heading |
|---|---|---|---|---|---|
| 2026-05-07 00:08 | 29.60271 | -95.16841 | 35 ft | 0 kts | 180° |
| 2026-05-07 00:24 | 29.60270 | -95.16841 | 35 ft | 1 kts | 180° |
| 2026-05-07 00:24 | 29.60254 | -95.16826 | 35 ft | 4 kts | 123° |
| 2026-05-07 00:25 | 29.60228 | -95.16788 | 34 ft | 7 kts | 140° |
| 2026-05-07 00:25 | 29.60202 | -95.16733 | 34 ft | 10 kts | 91° |
| 2026-05-07 00:25 | 29.60214 | -95.16644 | 34 ft | 13 kts | 39° |
| 2026-05-07 00:25 | 29.60313 | -95.16633 | 34 ft | 15 kts | 359° |
| 2026-05-07 00:26 | 29.60432 | -95.16636 | 34 ft | 18 kts | 359° |
| 2026-05-07 00:26 | 29.60570 | -95.16639 | 35 ft | 20 kts | 359° |
| 2026-05-07 00:26 | 29.60722 | -95.16643 | 36 ft | 23 kts | 358° |
| 2026-05-07 00:26 | 29.60890 | -95.16647 | 36 ft | 25 kts | 359° |
| 2026-05-07 00:27 | 29.61074 | -95.16651 | 37 ft | 27 kts | 359° |
| 2026-05-07 00:27 | 29.61249 | -95.16656 | 37 ft | 28 kts | 358° |
| 2026-05-07 00:27 | 29.61446 | -95.16660 | 38 ft | 25 kts | 358° |
| 2026-05-07 00:27 | 29.61614 | -95.16665 | 38 ft | 18 kts | 359° |
| 2026-05-07 00:28 | 29.61700 | -95.16621 | 38 ft | 14 kts | 45° |
| 2026-05-07 00:28 | 29.61770 | -95.16544 | 38 ft | 4 kts | 43° |
| 2026-05-07 00:28 | 29.61799 | -95.16504 | 38 ft | 7 kts | 62° |
| 2026-05-07 00:28 | 29.61802 | -95.16452 | 38 ft | 6 kts | 128° |
| 2026-05-07 00:29 | 29.61700 | -95.16438 | 38 ft | 38 kts | 178° |
| 2026-05-07 00:29 | 29.61105 | -95.16426 | 37 ft | 127 kts | 178° |
| 2026-05-07 00:30 | 29.57477 | -95.16405 | 1410 ft | 220 kts | 182° |
| 2026-05-07 00:30 | 29.55866 | -95.16459 | 2070 ft | 246 kts | 193° |
| 2026-05-07 00:30 | 29.54340 | -95.17349 | 3054 ft | 253 kts | 227° |
| 2026-05-07 00:30 | 29.53491 | -95.19073 | 4147 ft | 257 kts | 259° |
| 2026-05-07 00:31 | 29.53603 | -95.21094 | 5303 ft | 262 kts | 289° |
| 2026-05-07 00:31 | 29.54616 | -95.22752 | 6325 ft | 270 kts | 319° |
| 2026-05-07 00:31 | 29.56244 | -95.23867 | 7286 ft | 279 kts | 331° |
| 2026-05-07 00:31 | 29.58010 | -95.24846 | 8249 ft | 284 kts | 332° |
| 2026-05-07 00:32 | 29.59810 | -95.25822 | 9201 ft | 288 kts | 332° |
| 2026-05-07 00:32 | 29.61674 | -95.26678 | 10116 ft | 295 kts | 340° |
| 2026-05-07 00:32 | 29.63725 | -95.27303 | 10627 ft | 316 kts | 342° |
| 2026-05-07 00:32 | 29.65927 | -95.27928 | 11112 ft | 334 kts | 342° |
| 2026-05-07 00:33 | 29.68242 | -95.28585 | 11798 ft | 344 kts | 341° |
| 2026-05-07 00:33 | 29.70576 | -95.29247 | 12535 ft | 350 kts | 341° |
| 2026-05-07 00:33 | 29.72956 | -95.29923 | 13276 ft | 355 kts | 340° |
| 2026-05-07 00:33 | 29.75377 | -95.30610 | 14004 ft | 361 kts | 340° |
| 2026-05-07 00:34 | 29.77834 | -95.31308 | 14807 ft | 364 kts | 340° |
| 2026-05-07 00:34 | 29.80294 | -95.32008 | 15544 ft | 368 kts | 339° |
| 2026-05-07 00:34 | 29.82786 | -95.32719 | 16280 ft | 371 kts | 339° |
| 2026-05-07 00:34 | 29.85309 | -95.33438 | 17005 ft | 375 kts | 339° |
| 2026-05-07 00:35 | 29.87875 | -95.34171 | 17722 ft | 379 kts | 338° |
| 2026-05-07 00:35 | 29.90430 | -95.34901 | 18393 ft | 383 kts | 338° |
| 2026-05-07 00:35 | 29.93016 | -95.35640 | 19038 ft | 387 kts | 338° |
| 2026-05-07 00:35 | 29.95652 | -95.36395 | 19679 ft | 391 kts | 338° |
| 2026-05-07 00:36 | 29.98303 | -95.37153 | 20321 ft | 394 kts | 338° |
| 2026-05-07 00:36 | 30.00995 | -95.37924 | 20970 ft | 397 kts | 338° |
| 2026-05-07 00:36 | 30.03700 | -95.38699 | 21586 ft | 400 kts | 338° |
| 2026-05-07 00:36 | 30.06430 | -95.39483 | 22127 ft | 405 kts | 338° |
| 2026-05-07 00:37 | 30.09152 | -95.40295 | 22699 ft | 404 kts | 334° |
| 2026-05-07 00:37 | 30.11725 | -95.41554 | 23276 ft | 396 kts | 324° |
| 2026-05-07 00:37 | 30.14243 | -95.42983 | 23806 ft | 400 kts | 324° |
| 2026-05-07 00:37 | 30.16750 | -95.44399 | 24319 ft | 403 kts | 325° |
| 2026-05-07 00:38 | 30.19320 | -95.45849 | 24866 ft | 405 kts | 324° |
| 2026-05-07 00:38 | 30.21861 | -95.47283 | 25338 ft | 408 kts | 324° |
| 2026-05-07 00:38 | 30.24408 | -95.48721 | 25826 ft | 410 kts | 324° |
| 2026-05-07 00:38 | 30.26984 | -95.50176 | 26296 ft | 412 kts | 324° |
| 2026-05-07 00:39 | 30.29588 | -95.51647 | 26734 ft | 415 kts | 324° |
| 2026-05-07 00:39 | 30.32160 | -95.53101 | 27160 ft | 417 kts | 324° |
| 2026-05-07 00:39 | 30.34787 | -95.54586 | 27583 ft | 419 kts | 324° |
| 2026-05-07 00:39 | 30.37431 | -95.56081 | 28026 ft | 420 kts | 324° |
| 2026-05-07 00:40 | 30.40039 | -95.57558 | 28385 ft | 423 kts | 324° |
| 2026-05-07 00:40 | 30.42722 | -95.59077 | 28724 ft | 426 kts | 323° |
| 2026-05-07 00:40 | 30.45367 | -95.60574 | 29122 ft | 427 kts | 323° |
| 2026-05-07 00:40 | 30.48047 | -95.62093 | 29481 ft | 428 kts | 323° |
| 2026-05-07 00:41 | 30.50754 | -95.63628 | 29829 ft | 430 kts | 323° |
| 2026-05-07 00:41 | 30.53449 | -95.65155 | 30135 ft | 433 kts | 323° |
| 2026-05-07 00:41 | 30.56230 | -95.66659 | 30471 ft | 436 kts | 324° |
| 2026-05-07 00:41 | 30.59007 | -95.68138 | 30764 ft | 439 kts | 324° |
| 2026-05-07 00:42 | 30.61803 | -95.69630 | 31082 ft | 440 kts | 324° |
| 2026-05-07 00:42 | 30.64476 | -95.71056 | 31366 ft | 442 kts | 324° |
| 2026-05-07 00:42 | 30.67274 | -95.72552 | 31647 ft | 443 kts | 324° |
| 2026-05-07 00:42 | 30.70108 | -95.74066 | 31956 ft | 444 kts | 324° |
| 2026-05-07 00:43 | 30.72940 | -95.75581 | 32210 ft | 446 kts | 324° |
| 2026-05-07 00:43 | 30.75732 | -95.77077 | 32428 ft | 448 kts | 324° |
| 2026-05-07 00:43 | 30.78572 | -95.78598 | 32673 ft | 448 kts | 324° |
| 2026-05-07 00:43 | 30.81393 | -95.80109 | 32977 ft | 448 kts | 323° |
| 2026-05-07 00:44 | 30.84247 | -95.81638 | 33341 ft | 446 kts | 324° |
| 2026-05-07 00:44 | 30.87054 | -95.83141 | 33773 ft | 443 kts | 323° |
| 2026-05-07 00:44 | 30.89869 | -95.84654 | 33953 ft | 445 kts | 323° |
| 2026-05-07 00:44 | 30.92681 | -95.86171 | 33946 ft | 451 kts | 323° |
| 2026-05-07 00:45 | 30.98464 | -95.89290 | 33944 ft | 460 kts | 323° |
| 2026-05-07 00:45 | 31.04309 | -95.92442 | 33954 ft | 465 kts | 323° |
| 2026-05-07 00:46 | 31.10223 | -95.95600 | 33951 ft | 468 kts | 326° |
| 2026-05-07 00:46 | 31.13350 | -95.96890 | 33952 ft | 479 kts | 333° |
| 2026-05-07 00:46 | 31.16624 | -95.97767 | 33956 ft | 486 kts | 338° |
| 2026-05-07 00:47 | 31.23184 | -95.99242 | 33961 ft | 486 kts | 338° |
| 2026-05-07 00:47 | 31.29907 | -96.00763 | 33953 ft | 486 kts | 337° |
| 2026-05-07 00:48 | 31.36635 | -96.02287 | 33956 ft | 487 kts | 337° |
| 2026-05-07 00:48 | 31.43275 | -96.03797 | 33957 ft | 487 kts | 337° |
| 2026-05-07 00:49 | 31.49960 | -96.05318 | 33965 ft | 487 kts | 337° |
| 2026-05-07 00:49 | 31.56626 | -96.06838 | 33963 ft | 487 kts | 336° |
| 2026-05-07 00:50 | 31.63309 | -96.08363 | 33968 ft | 487 kts | 337° |
| 2026-05-07 00:50 | 31.69848 | -96.09859 | 33965 ft | 486 kts | 336° |
| 2026-05-07 00:51 | 31.76551 | -96.11395 | 33967 ft | 487 kts | 336° |
| 2026-05-07 00:51 | 31.83199 | -96.12920 | 33971 ft | 488 kts | 336° |
| 2026-05-07 00:52 | 31.89873 | -96.14452 | 33968 ft | 488 kts | 336° |
| 2026-05-07 00:52 | 31.96546 | -96.15987 | 33977 ft | 487 kts | 336° |
| 2026-05-07 00:53 | 32.03027 | -96.17481 | 33969 ft | 487 kts | 336° |
| 2026-05-07 00:53 | 32.09684 | -96.19017 | 33975 ft | 488 kts | 336° |
| 2026-05-07 00:54 | 32.16407 | -96.20563 | 33981 ft | 489 kts | 337° |
| 2026-05-07 00:54 | 32.19836 | -96.21076 | 33985 ft | 502 kts | 344° |
| 2026-05-07 00:54 | 32.23365 | -96.21191 | 33985 ft | 508 kts | 347° |
| 2026-05-07 00:55 | 32.30428 | -96.21304 | 33988 ft | 509 kts | 347° |
| 2026-05-07 00:55 | 32.37501 | -96.21422 | 33993 ft | 509 kts | 347° |
| 2026-05-07 00:56 | 32.44617 | -96.21539 | 33995 ft | 509 kts | 347° |
| 2026-05-07 00:56 | 32.51669 | -96.21658 | 34003 ft | 509 kts | 347° |
| 2026-05-07 00:57 | 32.58756 | -96.21779 | 34003 ft | 510 kts | 347° |
| 2026-05-07 00:57 | 32.65896 | -96.21900 | 34005 ft | 510 kts | 347° |
| 2026-05-07 00:58 | 32.73001 | -96.22020 | 34005 ft | 510 kts | 347° |
| 2026-05-07 00:58 | 32.79980 | -96.22138 | 34019 ft | 509 kts | 346° |
| 2026-05-07 00:59 | 32.90640 | -96.22321 | 34019 ft | 509 kts | 346° |
| 2026-05-07 01:00 | 32.97772 | -96.22444 | 34011 ft | 510 kts | 346° |
| 2026-05-07 01:00 | 33.04892 | -96.22566 | 34022 ft | 510 kts | 346° |
| 2026-05-07 01:01 | 33.11993 | -96.22688 | 34023 ft | 509 kts | 346° |
| 2026-05-07 01:01 | 33.19114 | -96.22810 | 34026 ft | 508 kts | 346° |
| 2026-05-07 01:02 | 33.26240 | -96.22934 | 34025 ft | 508 kts | 346° |
| 2026-05-07 01:02 | 33.33328 | -96.23057 | 34025 ft | 509 kts | 346° |
| 2026-05-07 01:03 | 33.40409 | -96.23181 | 34021 ft | 511 kts | 346° |
| 2026-05-07 01:03 | 33.47566 | -96.23305 | 34029 ft | 512 kts | 346° |
| 2026-05-07 01:04 | 33.54690 | -96.23438 | 34020 ft | 510 kts | 345° |
| 2026-05-07 01:04 | 33.61795 | -96.23682 | 34033 ft | 510 kts | 345° |
| 2026-05-07 01:05 | 33.68878 | -96.23932 | 34030 ft | 510 kts | 345° |
| 2026-05-07 01:05 | 33.75975 | -96.24181 | 34041 ft | 510 kts | 345° |
| 2026-05-07 01:06 | 33.83084 | -96.24431 | 34036 ft | 511 kts | 345° |
| 2026-05-07 01:06 | 33.90241 | -96.24682 | 34045 ft | 512 kts | 345° |
| 2026-05-07 01:07 | 33.97239 | -96.24927 | 34047 ft | 512 kts | 345° |
| 2026-05-07 01:07 | 34.04366 | -96.25178 | 34048 ft | 512 kts | 345° |
| 2026-05-07 01:08 | 34.11322 | -96.25423 | 34045 ft | 512 kts | 345° |
| 2026-05-07 01:08 | 34.18473 | -96.25674 | 34048 ft | 512 kts | 345° |
| 2026-05-07 01:09 | 34.25460 | -96.25924 | 34042 ft | 513 kts | 345° |
| 2026-05-07 01:09 | 34.32668 | -96.26180 | 34049 ft | 514 kts | 344° |
| 2026-05-07 01:10 | 34.39845 | -96.26432 | 34043 ft | 514 kts | 345° |
| 2026-05-07 01:10 | 34.46963 | -96.26683 | 34047 ft | 513 kts | 344° |
| 2026-05-07 01:11 | 34.54130 | -96.26938 | 34042 ft | 514 kts | 344° |
| 2026-05-07 01:11 | 34.61290 | -96.27192 | 34045 ft | 514 kts | 345° |
| 2026-05-07 01:12 | 34.68440 | -96.27447 | 34058 ft | 514 kts | 344° |
| 2026-05-07 01:12 | 34.75613 | -96.27703 | 34053 ft | 514 kts | 344° |
| 2026-05-07 01:13 | 34.82823 | -96.27962 | 34059 ft | 516 kts | 344° |
| 2026-05-07 01:13 | 34.90008 | -96.28220 | 34054 ft | 517 kts | 344° |
| 2026-05-07 01:14 | 34.97210 | -96.28477 | 34060 ft | 516 kts | 344° |
| 2026-05-07 01:14 | 35.04397 | -96.28734 | 34066 ft | 515 kts | 344° |
| 2026-05-07 01:15 | 35.11623 | -96.28995 | 34068 ft | 516 kts | 344° |
| 2026-05-07 01:15 | 35.18656 | -96.29248 | 34072 ft | 516 kts | 344° |
| 2026-05-07 01:16 | 35.25884 | -96.29508 | 34072 ft | 515 kts | 343° |
| 2026-05-07 01:16 | 35.33020 | -96.29765 | 34073 ft | 514 kts | 343° |
| 2026-05-07 01:17 | 35.40174 | -96.30024 | 34077 ft | 512 kts | 343° |
| 2026-05-07 01:17 | 35.47312 | -96.30284 | 34086 ft | 513 kts | 343° |
| 2026-05-07 01:18 | 35.54203 | -96.30535 | 34081 ft | 513 kts | 343° |
| 2026-05-07 01:18 | 35.61348 | -96.30795 | 34085 ft | 512 kts | 343° |
| 2026-05-07 01:19 | 35.68491 | -96.31056 | 34086 ft | 512 kts | 343° |
| 2026-05-07 01:19 | 35.75603 | -96.31317 | 34083 ft | 512 kts | 343° |
| 2026-05-07 01:20 | 35.82743 | -96.31579 | 34089 ft | 512 kts | 343° |
| 2026-05-07 01:20 | 35.89739 | -96.31836 | 34094 ft | 513 kts | 343° |
| 2026-05-07 01:21 | 35.96888 | -96.32098 | 34093 ft | 512 kts | 343° |
| 2026-05-07 01:21 | 36.04011 | -96.32360 | 34098 ft | 512 kts | 343° |
| 2026-05-07 01:22 | 36.11180 | -96.32625 | 34095 ft | 512 kts | 342° |
| 2026-05-07 01:22 | 36.18338 | -96.32889 | 34093 ft | 511 kts | 343° |
| 2026-05-07 01:23 | 36.25359 | -96.33149 | 34100 ft | 510 kts | 342° |
| 2026-05-07 01:23 | 36.32450 | -96.33411 | 34104 ft | 509 kts | 342° |
| 2026-05-07 01:24 | 36.39554 | -96.33675 | 34102 ft | 508 kts | 342° |
| 2026-05-07 01:24 | 36.46637 | -96.33941 | 34104 ft | 509 kts | 342° |
| 2026-05-07 01:25 | 36.53756 | -96.34207 | 34101 ft | 508 kts | 342° |
| 2026-05-07 01:25 | 36.60837 | -96.34473 | 34103 ft | 509 kts | 342° |
| 2026-05-07 01:26 | 36.67925 | -96.34738 | 34104 ft | 508 kts | 342° |
| 2026-05-07 01:26 | 36.74745 | -96.34996 | 34107 ft | 509 kts | 342° |
| 2026-05-07 01:27 | 36.81859 | -96.35264 | 34106 ft | 509 kts | 342° |
| 2026-05-07 01:27 | 36.88976 | -96.35531 | 34112 ft | 508 kts | 342° |
| 2026-05-07 01:28 | 36.95863 | -96.35789 | 34111 ft | 507 kts | 342° |
| 2026-05-07 01:28 | 37.02906 | -96.36056 | 34113 ft | 507 kts | 342° |
| 2026-05-07 01:29 | 37.09960 | -96.36326 | 34116 ft | 508 kts | 342° |
| 2026-05-07 01:29 | 37.17081 | -96.36596 | 34115 ft | 508 kts | 342° |
| 2026-05-07 01:30 | 37.24255 | -96.36867 | 34116 ft | 506 kts | 342° |
| 2026-05-07 01:30 | 37.31295 | -96.37135 | 34114 ft | 506 kts | 342° |
| 2026-05-07 01:31 | 37.38347 | -96.37405 | 34113 ft | 506 kts | 343° |
| 2026-05-07 01:31 | 37.45432 | -96.37677 | 34114 ft | 507 kts | 343° |
| 2026-05-07 01:32 | 37.52483 | -96.37949 | 34117 ft | 507 kts | 343° |
| 2026-05-07 01:32 | 37.59584 | -96.38220 | 34116 ft | 507 kts | 343° |
| 2026-05-07 01:33 | 37.66615 | -96.38490 | 34116 ft | 506 kts | 343° |
| 2026-05-07 01:33 | 37.73684 | -96.38763 | 34119 ft | 506 kts | 343° |
| 2026-05-07 01:34 | 37.80748 | -96.39033 | 34115 ft | 504 kts | 343° |
| 2026-05-07 01:34 | 37.87766 | -96.39304 | 34112 ft | 503 kts | 343° |
| 2026-05-07 01:35 | 37.94667 | -96.39574 | 34116 ft | 504 kts | 343° |
| 2026-05-07 01:35 | 38.01721 | -96.39848 | 34118 ft | 504 kts | 343° |
| 2026-05-07 01:36 | 38.08746 | -96.40122 | 34115 ft | 505 kts | 344° |
| 2026-05-07 01:36 | 38.15807 | -96.40398 | 34112 ft | 505 kts | 344° |
| 2026-05-07 01:37 | 38.22889 | -96.40674 | 34104 ft | 503 kts | 345° |
| 2026-05-07 01:37 | 38.29818 | -96.40946 | 34118 ft | 505 kts | 345° |
| 2026-05-07 01:38 | 38.36840 | -96.41220 | 34119 ft | 504 kts | 345° |
| 2026-05-07 01:38 | 38.43868 | -96.41495 | 34115 ft | 502 kts | 345° |
| 2026-05-07 01:39 | 38.50858 | -96.41769 | 34119 ft | 500 kts | 345° |
| 2026-05-07 01:39 | 38.57819 | -96.42043 | 34113 ft | 499 kts | 346° |
| 2026-05-07 01:40 | 38.64817 | -96.42320 | 34116 ft | 500 kts | 346° |
| 2026-05-07 01:40 | 38.71599 | -96.42589 | 34117 ft | 499 kts | 346° |
| 2026-05-07 01:41 | 38.78538 | -96.42864 | 34116 ft | 498 kts | 346° |
| 2026-05-07 01:41 | 38.85367 | -96.43135 | 34110 ft | 497 kts | 346° |
| 2026-05-07 01:42 | 38.92285 | -96.43411 | 34173 ft | 497 kts | 347° |
| 2026-05-07 01:42 | 38.99209 | -96.43687 | 34114 ft | 496 kts | 347° |
| 2026-05-07 01:43 | 39.06121 | -96.43964 | 34112 ft | 495 kts | 347° |
| 2026-05-07 01:43 | 39.13037 | -96.44241 | 34106 ft | 494 kts | 347° |
| 2026-05-07 01:44 | 39.19972 | -96.44519 | 34104 ft | 493 kts | 347° |
| 2026-05-07 01:44 | 39.26870 | -96.44797 | 34107 ft | 493 kts | 347° |
| 2026-05-07 01:45 | 39.33722 | -96.45074 | 34097 ft | 492 kts | 348° |
| 2026-05-07 01:45 | 39.40582 | -96.45351 | 34103 ft | 492 kts | 348° |
| 2026-05-07 01:46 | 39.47458 | -96.45629 | 34096 ft | 492 kts | 348° |
| 2026-05-07 01:46 | 39.54318 | -96.45908 | 34098 ft | 491 kts | 348° |
| 2026-05-07 01:47 | 39.61158 | -96.46185 | 34092 ft | 490 kts | 348° |
| 2026-05-07 01:47 | 39.67807 | -96.46455 | 34093 ft | 489 kts | 348° |
| 2026-05-07 01:48 | 39.74608 | -96.46732 | 34089 ft | 488 kts | 348° |
| 2026-05-07 01:48 | 39.81412 | -96.47011 | 34087 ft | 487 kts | 348° |
| 2026-05-07 01:49 | 39.88193 | -96.47289 | 34079 ft | 487 kts | 349° |
| 2026-05-07 01:49 | 39.94714 | -96.47555 | 34085 ft | 487 kts | 349° |
| 2026-05-07 01:50 | 40.01341 | -96.47829 | 34077 ft | 486 kts | 349° |
| 2026-05-07 01:50 | 40.08100 | -96.48107 | 34073 ft | 485 kts | 349° |
| 2026-05-07 01:51 | 40.14913 | -96.48389 | 34075 ft | 484 kts | 349° |
| 2026-05-07 01:51 | 40.21625 | -96.48666 | 34073 ft | 483 kts | 349° |
| 2026-05-07 01:52 | 40.28348 | -96.48945 | 34069 ft | 482 kts | 349° |
| 2026-05-07 01:52 | 40.35033 | -96.49222 | 34068 ft | 480 kts | 349° |
| 2026-05-07 01:53 | 40.41728 | -96.49502 | 34069 ft | 480 kts | 349° |
| 2026-05-07 01:53 | 40.48410 | -96.49781 | 34065 ft | 479 kts | 350° |
| 2026-05-07 01:54 | 40.55064 | -96.50059 | 34066 ft | 477 kts | 350° |
| 2026-05-07 01:54 | 40.61697 | -96.50337 | 34063 ft | 476 kts | 350° |
| 2026-05-07 01:55 | 40.68324 | -96.50616 | 34061 ft | 476 kts | 351° |
| 2026-05-07 01:55 | 40.74939 | -96.50894 | 34068 ft | 475 kts | 351° |
| 2026-05-07 01:56 | 40.81553 | -96.51173 | 34065 ft | 475 kts | 351° |
| 2026-05-07 01:56 | 40.88177 | -96.51453 | 34063 ft | 474 kts | 351° |
| 2026-05-07 01:57 | 40.94789 | -96.51733 | 34070 ft | 474 kts | 351° |
| 2026-05-07 01:57 | 41.01357 | -96.52011 | 34057 ft | 472 kts | 351° |
| 2026-05-07 01:58 | 41.07929 | -96.52290 | 34060 ft | 471 kts | 351° |
| 2026-05-07 01:58 | 41.14499 | -96.52570 | 34053 ft | 470 kts | 351° |
| 2026-05-07 01:59 | 41.21101 | -96.52851 | 34067 ft | 469 kts | 351° |
| 2026-05-07 01:59 | 41.27671 | -96.53132 | 34059 ft | 469 kts | 352° |
| 2026-05-07 02:00 | 41.34181 | -96.53410 | 34057 ft | 468 kts | 351° |
| 2026-05-07 02:00 | 41.40683 | -96.53690 | 34055 ft | 467 kts | 352° |
| 2026-05-07 02:01 | 41.47092 | -96.53965 | 34054 ft | 466 kts | 352° |
| 2026-05-07 02:01 | 41.53549 | -96.54243 | 34058 ft | 466 kts | 352° |
| 2026-05-07 02:02 | 41.60021 | -96.54523 | 34049 ft | 465 kts | 352° |
| 2026-05-07 02:02 | 41.66480 | -96.54802 | 34046 ft | 463 kts | 352° |
| 2026-05-07 02:03 | 41.72920 | -96.55081 | 34042 ft | 463 kts | 352° |
| 2026-05-07 02:03 | 41.79380 | -96.55362 | 34031 ft | 461 kts | 352° |
| 2026-05-07 02:03 | 41.82577 | -96.55501 | 33848 ft | 463 kts | 352° |
| 2026-05-07 02:04 | 41.85788 | -96.55640 | 33383 ft | 456 kts | 352° |
| 2026-05-07 02:04 | 41.88976 | -96.55776 | 32886 ft | 450 kts | 352° |
| 2026-05-07 02:04 | 41.92066 | -96.55909 | 32354 ft | 445 kts | 352° |
| 2026-05-07 02:04 | 41.95156 | -96.56043 | 31839 ft | 440 kts | 353° |
| 2026-05-07 02:05 | 41.98184 | -96.56175 | 31295 ft | 436 kts | 353° |
| 2026-05-07 02:05 | 42.01188 | -96.56306 | 30680 ft | 431 kts | 353° |
| 2026-05-07 02:05 | 42.04210 | -96.56438 | 30005 ft | 427 kts | 353° |
| 2026-05-07 02:05 | 42.07122 | -96.56566 | 29374 ft | 422 kts | 353° |
| 2026-05-07 02:06 | 42.10021 | -96.56692 | 28786 ft | 416 kts | 353° |
| 2026-05-07 02:06 | 42.12928 | -96.56819 | 28208 ft | 411 kts | 353° |
| 2026-05-07 02:06 | 42.15803 | -96.56945 | 27636 ft | 406 kts | 353° |
| 2026-05-07 02:06 | 42.18600 | -96.57068 | 27098 ft | 400 kts | 353° |
| 2026-05-07 02:07 | 42.21418 | -96.57192 | 26560 ft | 394 kts | 353° |
| 2026-05-07 02:07 | 42.26833 | -96.57430 | 25517 ft | 385 kts | 352° |
| 2026-05-07 02:07 | 42.29468 | -96.57546 | 25020 ft | 379 kts | 352° |
| 2026-05-07 02:08 | 42.32103 | -96.57662 | 24517 ft | 375 kts | 352° |
| 2026-05-07 02:08 | 42.34691 | -96.57778 | 24018 ft | 377 kts | 352° |
| 2026-05-07 02:08 | 42.37313 | -96.57896 | 23524 ft | 376 kts | 352° |
| 2026-05-07 02:08 | 42.39950 | -96.58014 | 23020 ft | 375 kts | 353° |
| 2026-05-07 02:09 | 42.42526 | -96.58128 | 22526 ft | 371 kts | 352° |
| 2026-05-07 02:09 | 42.45099 | -96.58243 | 22041 ft | 369 kts | 352° |
| 2026-05-07 02:09 | 42.47645 | -96.58356 | 21549 ft | 367 kts | 353° |
| 2026-05-07 02:09 | 42.50192 | -96.58470 | 21066 ft | 364 kts | 353° |
| 2026-05-07 02:10 | 42.52701 | -96.58582 | 20588 ft | 361 kts | 353° |
| 2026-05-07 02:10 | 42.55208 | -96.58694 | 20106 ft | 358 kts | 353° |
| 2026-05-07 02:10 | 42.57683 | -96.58804 | 19631 ft | 356 kts | 353° |
| 2026-05-07 02:10 | 42.60157 | -96.58915 | 19161 ft | 353 kts | 353° |
| 2026-05-07 02:11 | 42.62597 | -96.59024 | 18695 ft | 351 kts | 353° |
| 2026-05-07 02:11 | 42.65024 | -96.59132 | 18229 ft | 348 kts | 353° |
| 2026-05-07 02:11 | 42.67412 | -96.59239 | 17773 ft | 346 kts | 352° |
| 2026-05-07 02:11 | 42.69829 | -96.59347 | 17310 ft | 344 kts | 353° |
| 2026-05-07 02:12 | 42.72189 | -96.59454 | 16859 ft | 341 kts | 353° |
| 2026-05-07 02:12 | 42.74519 | -96.59558 | 16387 ft | 339 kts | 352° |
| 2026-05-07 02:12 | 42.76874 | -96.59663 | 15947 ft | 337 kts | 353° |
| 2026-05-07 02:12 | 42.79217 | -96.59769 | 15498 ft | 335 kts | 353° |
| 2026-05-07 02:13 | 42.81538 | -96.59873 | 15056 ft | 332 kts | 353° |
| 2026-05-07 02:13 | 42.83804 | -96.59975 | 14622 ft | 330 kts | 353° |
| 2026-05-07 02:13 | 42.86111 | -96.60078 | 14181 ft | 327 kts | 353° |
| 2026-05-07 02:13 | 42.88376 | -96.60180 | 13752 ft | 325 kts | 353° |
| 2026-05-07 02:14 | 42.90620 | -96.60281 | 13319 ft | 324 kts | 353° |
| 2026-05-07 02:14 | 42.92864 | -96.60383 | 12893 ft | 322 kts | 353° |
| 2026-05-07 02:14 | 42.95097 | -96.60484 | 12466 ft | 319 kts | 353° |
| 2026-05-07 02:14 | 42.97311 | -96.60583 | 12042 ft | 314 kts | 353° |
| 2026-05-07 02:15 | 42.99462 | -96.60678 | 11634 ft | 308 kts | 353° |
| 2026-05-07 02:15 | 43.01588 | -96.60773 | 11216 ft | 302 kts | 353° |
| 2026-05-07 02:15 | 43.03682 | -96.60867 | 10830 ft | 296 kts | 353° |
| 2026-05-07 02:15 | 43.05724 | -96.60958 | 10439 ft | 292 kts | 353° |
| 2026-05-07 02:16 | 43.07715 | -96.61048 | 10051 ft | 288 kts | 353° |
| 2026-05-07 02:16 | 43.09707 | -96.61139 | 9674 ft | 283 kts | 353° |
| 2026-05-07 02:16 | 43.11686 | -96.61228 | 9280 ft | 278 kts | 353° |
| 2026-05-07 02:16 | 43.13597 | -96.61313 | 8912 ft | 270 kts | 353° |
| 2026-05-07 02:17 | 43.15507 | -96.61403 | 8576 ft | 270 kts | 353° |
| 2026-05-07 02:17 | 43.17409 | -96.61494 | 8191 ft | 274 kts | 353° |
| 2026-05-07 02:17 | 43.19072 | -96.61570 | 7882 ft | 271 kts | 354° |
| 2026-05-07 02:17 | 43.21016 | -96.61654 | 7501 ft | 270 kts | 354° |
| 2026-05-07 02:18 | 43.22888 | -96.61741 | 7148 ft | 267 kts | 354° |
| 2026-05-07 02:18 | 43.24753 | -96.61826 | 6789 ft | 266 kts | 354° |
| 2026-05-07 02:18 | 43.26608 | -96.61912 | 6438 ft | 266 kts | 355° |
| 2026-05-07 02:18 | 43.28442 | -96.61996 | 6086 ft | 265 kts | 355° |
| 2026-05-07 02:19 | 43.30286 | -96.62081 | 5737 ft | 264 kts | 355° |
| 2026-05-07 02:19 | 43.32089 | -96.62163 | 5386 ft | 263 kts | 355° |
| 2026-05-07 02:19 | 43.33934 | -96.62248 | 5039 ft | 258 kts | 355° |
| 2026-05-07 02:19 | 43.35712 | -96.62329 | 4700 ft | 253 kts | 356° |
| 2026-05-07 02:20 | 43.37462 | -96.62409 | 4364 ft | 249 kts | 356° |
| 2026-05-07 02:20 | 43.39183 | -96.62488 | 4034 ft | 245 kts | 356° |
| 2026-05-07 02:20 | 43.40845 | -96.62782 | 3804 ft | 233 kts | 339° |
| 2026-05-07 02:20 | 43.42252 | -96.63638 | 3815 ft | 211 kts | 333° |
| 2026-05-07 02:21 | 43.43572 | -96.64504 | 3809 ft | 210 kts | 334° |
| 2026-05-07 02:21 | 43.44862 | -96.65332 | 3808 ft | 189 kts | 333° |
| 2026-05-07 02:21 | 43.45921 | -96.66009 | 3809 ft | 170 kts | 333° |
| 2026-05-07 02:21 | 43.46889 | -96.66628 | 3781 ft | 154 kts | 333° |
| 2026-05-07 02:22 | 43.47838 | -96.67248 | 3588 ft | 150 kts | 332° |
| 2026-05-07 02:22 | 43.48732 | -96.67805 | 3431 ft | 140 kts | 337° |
| 2026-05-07 02:22 | 43.49633 | -96.68327 | 3215 ft | 139 kts | 334° |
| 2026-05-07 02:22 | 43.50512 | -96.68925 | 2937 ft | 139 kts | 331° |
| 2026-05-07 02:23 | 43.51378 | -96.69486 | 2759 ft | 138 kts | 335° |
| 2026-05-07 02:23 | 43.52261 | -96.70039 | 2558 ft | 139 kts | 332° |
| 2026-05-07 02:23 | 43.53119 | -96.70645 | 2325 ft | 138 kts | 331° |
| 2026-05-07 02:23 | 43.53996 | -96.71162 | 2147 ft | 137 kts | 336° |
| 2026-05-07 02:24 | 43.54860 | -96.71723 | 1971 ft | 136 kts | 334° |
| 2026-05-07 02:24 | 43.55710 | -96.72282 | 1774 ft | 137 kts | 333° |
| 2026-05-07 02:24 | 43.56573 | -96.72840 | 1622 ft | 137 kts | 335° |
| 2026-05-07 02:24 | 43.57409 | -96.73376 | 1453 ft | 136 kts | 333° |
| 2026-05-07 02:25 | 43.58165 | -96.73871 | 1429 ft | 85 kts | 335° |
| 2026-05-07 02:25 | 43.58481 | -96.74074 | 1428 ft | 32 kts | 338° |
| 2026-05-07 02:25 | 43.58621 | -96.74153 | 1428 ft | 20 kts | 334° |
| 2026-05-07 02:25 | 43.58760 | -96.74246 | 1428 ft | 23 kts | 334° |
| 2026-05-07 02:26 | 43.58912 | -96.74348 | 1428 ft | 25 kts | 334° |
| 2026-05-07 02:26 | 43.58998 | -96.74309 | 1428 ft | 8 kts | 66° |
| 2026-05-07 02:26 | 43.59057 | -96.74276 | 1428 ft | 12 kts | 336° |
| 2026-05-07 02:26 | 43.59135 | -96.74292 | 1428 ft | 10 kts | 56° |
| 2026-05-07 02:27 | 43.59140 | -96.74209 | 1428 ft | 6 kts | 116° |
| 2026-05-07 02:27 | 43.59142 | -96.74174 | 1428 ft | 0 kts | 63° |